createdAt,value
2022-11-17T00:01:42.815Z,35.63
2022-11-17T00:04:11.270Z,36.63
2022-11-17T00:06:39.789Z,40.33
2022-11-17T00:09:12.192Z,36.30
2022-11-17T00:11:54.390Z,39.03
2022-11-17T00:14:36.624Z,46.27
2022-11-17T00:17:08.421Z,48.63
2022-11-17T00:19:54.015Z,49.20
2022-11-17T00:22:22.537Z,45.40
2022-11-17T00:24:51.314Z,43.90
2022-11-17T00:27:19.833Z,49.43
2022-11-17T00:29:48.254Z,52.23
2022-11-17T00:32:36.845Z,51.90
2022-11-17T00:35:06.100Z,53.00
2022-11-17T00:37:38.193Z,53.03
2022-11-17T00:40:07.714Z,46.37
2022-11-17T00:42:36.132Z,50.40
2022-11-17T00:45:04.879Z,48.07
2022-11-17T00:47:37.224Z,46.43
2022-11-17T00:50:06.522Z,50.80
2022-11-17T00:52:34.975Z,50.97
2022-11-17T00:55:03.796Z,43.97
2022-11-17T00:57:32.335Z,48.37
2022-11-17T01:00:00.854Z,46.40
2022-11-17T01:02:29.250Z,52.37
2022-11-17T01:04:59.011Z,49.03
2022-11-17T01:07:27.539Z,51.30
2022-11-17T01:09:56.096Z,47.17
2022-11-17T01:12:24.528Z,52.27
2022-11-17T01:14:52.934Z,48.90
2022-11-17T01:17:21.336Z,50.87
2022-11-17T01:19:50.566Z,50.63
2022-11-17T01:22:20.315Z,48.00
2022-11-17T01:24:48.791Z,51.97
2022-11-17T01:27:17.148Z,48.10
2022-11-17T01:29:45.618Z,50.27
2022-11-17T01:32:14.030Z,50.10
2022-11-17T01:34:42.495Z,44.80
2022-11-17T01:37:30.946Z,53.00
2022-11-17T01:39:59.435Z,49.77
2022-11-17T01:42:28.462Z,46.50
2022-11-17T01:45:06.417Z,47.90
2022-11-17T01:47:45.903Z,40.37
2022-11-17T01:50:26.051Z,42.17
2022-11-17T01:52:59.682Z,39.50
2022-11-17T01:55:33.004Z,42.80
2022-11-17T01:58:07.003Z,41.60
2022-11-17T02:00:35.397Z,42.47
2022-11-17T02:03:07.098Z,43.80
2022-11-17T02:05:44.476Z,41.63
2022-11-17T02:08:15.981Z,39.07
2022-11-17T02:10:51.312Z,43.13
2022-11-17T02:13:21.609Z,43.87
2022-11-17T02:15:51.612Z,40.83
2022-11-17T02:18:20.526Z,50.60
2022-11-17T02:21:01.333Z,42.93
2022-11-17T02:24:06.712Z,47.90
2022-11-17T02:27:04.487Z,49.60
2022-11-17T02:29:38.289Z,44.40
2022-11-17T02:32:10.952Z,41.20
2022-11-17T02:34:46.564Z,42.33
2022-11-17T02:37:22.554Z,45.03
2022-11-17T02:40:00.349Z,43.50
2022-11-17T02:42:52.959Z,43.40
2022-11-17T02:45:26.993Z,39.97
2022-11-17T02:47:57.046Z,40.90
2022-11-17T02:50:28.818Z,45.87
2022-11-17T02:52:57.697Z,47.40
2022-11-17T02:55:27.696Z,42.60
2022-11-17T02:57:56.211Z,48.10
2022-11-17T03:00:27.887Z,41.97
2022-11-17T03:03:22.216Z,49.00
2022-11-17T03:05:59.889Z,46.47
2022-11-17T03:08:36.386Z,46.47
2022-11-17T03:11:07.203Z,45.60
2022-11-17T03:13:47.269Z,45.17
2022-11-17T03:16:27.227Z,45.00
2022-11-17T03:19:05.629Z,46.30
2022-11-17T03:21:38.197Z,42.03
2022-11-17T03:24:12.599Z,41.73
2022-11-17T03:26:44.901Z,52.80
2022-11-17T03:29:16.096Z,42.67
2022-11-17T03:31:49.879Z,44.33
2022-11-17T03:34:21.746Z,45.50
2022-11-17T03:36:53.184Z,38.00
2022-11-17T03:39:26.366Z,45.30
2022-11-17T03:41:59.942Z,39.17
2022-11-17T03:44:31.634Z,45.03
2022-11-17T03:47:05.276Z,41.23
2022-11-17T03:49:41.186Z,39.60
2022-11-17T03:52:09.857Z,48.10
2022-11-17T03:54:38.689Z,40.20
2022-11-17T03:57:13.650Z,39.30
2022-11-17T03:59:51.630Z,40.03
2022-11-17T04:02:22.696Z,38.63
2022-11-17T04:05:06.480Z,38.80
2022-11-17T04:07:36.236Z,39.27
2022-11-17T04:10:06.368Z,39.90
2022-11-17T04:12:52.315Z,41.53
2022-11-17T04:15:47.039Z,36.60
2022-11-17T04:18:17.181Z,37.87
2022-11-17T04:20:46.033Z,34.13
2022-11-17T04:23:16.060Z,39.07
2022-11-17T04:26:03.731Z,37.47
2022-11-17T04:28:39.082Z,35.07
2022-11-17T04:31:15.883Z,37.23
2022-11-17T04:33:47.211Z,37.40
2022-11-17T04:36:17.800Z,38.60
2022-11-17T04:38:47.999Z,38.03
2022-11-17T04:41:35.481Z,37.03
2022-11-17T04:44:05.213Z,41.53
2022-11-17T04:46:34.972Z,39.70
2022-11-17T04:49:05.663Z,37.27
2022-11-17T04:51:35.006Z,35.87
2022-11-17T04:54:04.518Z,36.73
2022-11-17T04:56:32.975Z,37.47
2022-11-17T04:59:01.429Z,35.90
2022-11-17T05:01:30.075Z,33.27
2022-11-17T05:04:00.085Z,35.90
2022-11-17T05:06:32.531Z,33.50
2022-11-17T05:09:02.552Z,32.70
2022-11-17T05:11:49.360Z,36.17
2022-11-17T05:14:19.411Z,34.97
2022-11-17T05:17:09.451Z,31.93
2022-11-17T05:19:40.078Z,33.73
2022-11-17T05:22:25.220Z,37.10
2022-11-17T05:24:53.718Z,33.63
2022-11-17T05:27:23.283Z,34.67
2022-11-17T05:29:51.929Z,42.50
2022-11-17T05:32:20.375Z,41.03
2022-11-17T05:34:49.187Z,40.00
2022-11-17T05:37:18.988Z,47.07
2022-11-17T05:39:47.447Z,46.30
2022-11-17T05:42:15.892Z,45.03
2022-11-17T05:44:44.337Z,44.07
2022-11-17T05:47:12.765Z,45.40
2022-11-17T05:49:41.258Z,39.23
2022-11-17T05:52:09.701Z,37.23
2022-11-17T05:54:39.570Z,40.07
2022-11-17T05:57:13.504Z,41.30
2022-11-17T05:59:46.747Z,34.20
2022-11-17T06:02:18.979Z,33.37
2022-11-17T06:04:49.797Z,30.80
2022-11-17T06:07:19.337Z,29.00
2022-11-17T06:09:49.430Z,36.13
2022-11-17T06:12:18.001Z,30.30
2022-11-17T06:14:46.432Z,29.20
2022-11-17T06:17:23.216Z,26.30
2022-11-17T06:19:56.219Z,31.40
2022-11-17T06:22:26.785Z,32.70
2022-11-17T06:24:57.083Z,31.57
2022-11-17T06:27:26.719Z,30.70
2022-11-17T06:29:57.326Z,32.40
2022-11-17T06:32:25.863Z,29.47
2022-11-17T06:34:56.329Z,30.00
2022-11-17T06:37:25.765Z,38.43
2022-11-17T06:39:54.216Z,36.67
2022-11-17T06:42:44.081Z,31.97
2022-11-17T06:45:13.418Z,47.03
2022-11-17T06:47:42.111Z,46.63
2022-11-17T06:50:11.356Z,37.40
2022-11-17T06:52:39.810Z,41.63
2022-11-17T06:55:09.409Z,33.50
2022-11-17T06:57:39.322Z,34.20
2022-11-17T07:00:09.031Z,33.60
2022-11-17T07:02:37.836Z,31.57
2022-11-17T07:05:07.013Z,36.03
2022-11-17T07:07:35.510Z,32.67
2022-11-17T07:10:04.001Z,35.60
2022-11-17T07:12:32.475Z,42.67
2022-11-17T07:15:02.521Z,40.20
2022-11-17T07:17:31.787Z,44.73
2022-11-17T07:20:00.219Z,42.13
2022-11-17T07:22:28.771Z,44.07
2022-11-17T07:24:57.719Z,48.27
2022-11-17T07:27:26.354Z,48.67
2022-11-17T07:29:54.784Z,42.80
2022-11-17T07:32:25.035Z,43.83
2022-11-17T07:34:53.430Z,35.43
2022-11-17T07:37:21.835Z,27.93
2022-11-17T07:39:50.282Z,31.57
2022-11-17T07:42:18.717Z,28.53
2022-11-17T07:44:54.407Z,33.77
2022-11-17T07:47:24.242Z,29.00
2022-11-17T07:49:52.858Z,39.40
2022-11-17T07:52:21.597Z,53.10
2022-11-17T07:54:50.347Z,45.70
2022-11-17T07:57:20.621Z,47.00
2022-11-17T07:59:49.172Z,43.50
2022-11-17T08:02:17.660Z,42.67
2022-11-17T08:04:47.474Z,43.20
2022-11-17T08:07:16.004Z,40.50
2022-11-17T08:09:44.546Z,38.20
2022-11-17T08:12:13.015Z,34.90
2022-11-17T08:14:41.551Z,32.00
2022-11-17T08:17:10.122Z,29.00
2022-11-17T08:19:38.646Z,29.83
2022-11-17T08:22:08.579Z,30.77
2022-11-17T08:24:37.151Z,32.13
2022-11-17T08:27:05.780Z,29.90
2022-11-17T08:29:34.334Z,34.70
2022-11-17T08:32:02.953Z,33.13
2022-11-17T08:34:31.366Z,29.97
2022-11-17T08:36:59.734Z,35.20
2022-11-17T08:39:29.853Z,33.53
2022-11-17T08:41:58.302Z,31.10
2022-11-17T08:44:26.703Z,30.30
2022-11-17T08:46:55.164Z,33.20
2022-11-17T08:49:23.693Z,36.03
2022-11-17T08:51:52.190Z,32.93
2022-11-17T08:54:20.670Z,35.90
2022-11-17T08:56:50.632Z,31.87
2022-11-17T08:59:19.207Z,31.37
2022-11-17T09:01:47.781Z,30.90
2022-11-17T09:04:16.422Z,31.63
2022-11-17T09:06:44.863Z,33.07
2022-11-17T09:09:13.263Z,35.17
2022-11-17T09:11:41.701Z,30.20
2022-11-17T09:14:11.510Z,40.13
2022-11-17T09:16:39.894Z,37.93
2022-11-17T09:19:08.270Z,36.80
2022-11-17T09:21:36.725Z,32.50
2022-11-17T09:24:05.807Z,31.03
2022-11-17T09:26:34.274Z,32.80
2022-11-17T09:29:03.643Z,39.43
2022-11-17T09:31:33.600Z,38.80
2022-11-17T09:34:05.383Z,38.90
2022-11-17T09:36:35.026Z,36.37
2022-11-17T09:39:03.478Z,35.23
2022-11-17T09:41:36.851Z,39.83
2022-11-17T09:44:16.639Z,36.33
2022-11-17T09:47:01.923Z,40.87
2022-11-17T09:49:39.145Z,42.50
2022-11-17T09:52:14.743Z,63.10
2022-11-17T09:54:48.390Z,74.50
2022-11-17T09:57:23.491Z,52.47
2022-11-17T10:00:03.438Z,49.30
2022-11-17T10:02:35.544Z,38.90
2022-11-17T10:05:04.622Z,42.30
2022-11-17T10:07:35.827Z,43.43
2022-11-17T10:10:06.884Z,47.80
2022-11-17T10:12:43.448Z,48.53
2022-11-17T10:15:24.631Z,51.57
2022-11-17T10:17:54.409Z,47.63
2022-11-17T10:20:23.103Z,50.60
2022-11-17T10:22:53.332Z,39.43
2022-11-17T10:25:24.709Z,43.77
2022-11-17T10:27:55.049Z,43.13
2022-11-17T10:30:25.239Z,41.27
2022-11-17T10:32:56.523Z,43.90
2022-11-17T10:35:27.343Z,45.97
2022-11-17T10:37:58.739Z,50.40
2022-11-17T10:40:28.951Z,49.13
2022-11-17T10:43:21.390Z,47.17
2022-11-17T10:45:51.995Z,46.27
2022-11-17T10:48:30.059Z,44.50
2022-11-17T10:51:00.194Z,43.63
2022-11-17T10:53:32.556Z,48.90
2022-11-17T10:56:07.896Z,47.33
2022-11-17T10:59:08.605Z,48.27
2022-11-17T11:01:38.946Z,47.83
2022-11-17T11:04:27.649Z,48.23
2022-11-17T11:07:09.007Z,46.30
2022-11-17T11:09:41.042Z,46.87
2022-11-17T11:12:15.800Z,42.83
2022-11-17T11:14:49.826Z,44.67
2022-11-17T11:17:20.319Z,52.20
2022-11-17T11:19:53.450Z,45.13
2022-11-17T11:22:38.857Z,50.53
2022-11-17T11:25:25.903Z,44.87
2022-11-17T11:28:06.412Z,46.57
2022-11-17T11:30:39.688Z,48.50
2022-11-17T11:33:21.568Z,49.50
2022-11-17T11:36:05.765Z,50.40
2022-11-17T11:38:48.257Z,44.47
2022-11-17T11:41:29.907Z,48.30
2022-11-17T11:44:26.435Z,47.93
2022-11-17T11:47:01.026Z,48.17
2022-11-17T11:49:35.775Z,49.60
2022-11-17T11:52:11.906Z,49.60
2022-11-17T11:54:50.565Z,45.77
2022-11-17T11:57:25.072Z,44.20
2022-11-17T12:00:03.589Z,49.70
2022-11-17T12:02:42.168Z,49.83
2022-11-17T12:05:20.785Z,47.53
2022-11-17T12:07:55.612Z,47.93
2022-11-17T12:10:32.946Z,51.63
2022-11-17T12:13:02.086Z,57.50
2022-11-17T12:15:36.645Z,44.77
2022-11-17T12:18:14.977Z,51.00
2022-11-17T12:21:01.175Z,48.57
2022-11-17T12:23:59.266Z,54.50
2022-11-17T12:26:30.944Z,48.63
2022-11-17T12:29:25.738Z,60.30
2022-11-17T12:31:55.101Z,53.13
2022-11-17T12:34:29.081Z,53.87
2022-11-17T12:37:23.007Z,59.57
2022-11-17T12:40:00.714Z,59.27
2022-11-17T12:42:31.729Z,58.40
2022-11-17T12:45:07.748Z,49.43
2022-11-17T12:47:38.087Z,55.23
2022-11-17T12:50:53.042Z,53.90
2022-11-17T12:53:53.145Z,55.83
2022-11-17T12:56:37.601Z,54.00
2022-11-17T12:59:41.911Z,52.20
2022-11-17T13:02:25.630Z,55.47
2022-11-17T13:04:58.806Z,63.37
2022-11-17T13:07:28.246Z,56.90
2022-11-17T13:09:58.324Z,57.63
2022-11-17T13:12:28.460Z,53.60
2022-11-17T13:14:59.649Z,54.50
2022-11-17T13:17:29.880Z,52.00
2022-11-17T13:20:03.907Z,52.47
2022-11-17T13:22:35.280Z,52.63
2022-11-17T13:25:20.719Z,45.93
2022-11-17T13:27:54.956Z,54.37
2022-11-17T13:30:29.049Z,56.10
2022-11-17T13:32:59.398Z,53.60
2022-11-17T13:35:29.865Z,50.33
2022-11-17T13:38:07.428Z,58.10
2022-11-17T13:40:38.058Z,52.33
2022-11-17T13:43:08.555Z,55.53
2022-11-17T13:45:38.712Z,50.37
2022-11-17T13:48:07.630Z,51.07
2022-11-17T13:50:38.707Z,48.77
2022-11-17T13:53:25.062Z,46.53
2022-11-17T13:55:54.545Z,48.50
2022-11-17T13:58:39.269Z,47.53
2022-11-17T14:01:13.299Z,44.97
2022-11-17T14:03:43.392Z,44.80
2022-11-17T14:06:14.299Z,53.00
2022-11-17T14:08:44.801Z,46.27
2022-11-17T14:11:21.460Z,47.67
2022-11-17T14:13:52.442Z,47.00
2022-11-17T14:16:28.280Z,43.07
2022-11-17T14:19:03.802Z,46.53
2022-11-17T14:21:33.253Z,41.90
2022-11-17T14:24:08.127Z,41.57
2022-11-17T14:26:41.566Z,44.07
2022-11-17T14:29:12.492Z,47.00
2022-11-17T14:31:42.306Z,41.73
2022-11-17T14:34:11.048Z,44.73
2022-11-17T14:36:40.579Z,44.10
2022-11-17T14:39:16.494Z,45.10
2022-11-17T14:41:46.174Z,52.57
2022-11-17T14:44:14.787Z,50.60
2022-11-17T14:46:44.867Z,49.17
2022-11-17T14:49:13.813Z,57.60
2022-11-17T14:51:42.412Z,57.60
2022-11-17T14:54:10.936Z,65.97
2022-11-17T14:56:39.389Z,68.50
2022-11-17T14:59:09.223Z,64.77
2022-11-17T15:01:38.700Z,69.53
2022-11-17T15:04:34.515Z,72.10
2022-11-17T15:06:57.607Z,71.63
2022-11-17T15:09:26.072Z,75.57
2022-11-17T15:11:54.515Z,74.73
2022-11-17T15:14:23.048Z,78.50
2022-11-17T15:16:51.608Z,78.67
2022-11-17T15:19:21.446Z,77.70
2022-11-17T15:21:49.925Z,88.80
2022-11-17T15:24:18.693Z,85.13
2022-11-17T15:26:47.373Z,78.33
2022-11-17T15:29:16.653Z,79.43
2022-11-17T15:31:45.535Z,82.53
2022-11-17T15:34:19.729Z,87.37
2022-11-17T15:36:50.340Z,83.77
2022-11-17T15:39:19.077Z,87.03
2022-11-17T15:41:48.911Z,90.20
2022-11-17T15:44:18.866Z,87.13
2022-11-17T15:46:48.078Z,86.70
2022-11-17T15:49:17.038Z,96.90
2022-11-17T15:51:45.940Z,91.63
2022-11-17T15:54:20.329Z,99.00
2022-11-17T15:56:49.087Z,110.17
2022-11-17T15:59:17.848Z,108.10
2022-11-17T16:01:46.800Z,95.50
2022-11-17T16:04:16.415Z,112.80
2022-11-17T16:06:47.237Z,108.97
2022-11-17T16:09:17.825Z,100.03
2022-11-17T16:11:46.801Z,109.27
2022-11-17T16:14:15.911Z,119.50
2022-11-17T16:16:46.798Z,124.77
2022-11-17T16:19:15.614Z,117.83
2022-11-17T16:21:44.630Z,117.40
2022-11-17T16:24:13.446Z,112.63
2022-11-17T16:26:44.615Z,130.83
2022-11-17T16:29:13.515Z,125.43
2022-11-17T16:31:42.328Z,127.30
2022-11-17T16:34:14.075Z,124.23
2022-11-17T16:36:44.140Z,115.93
2022-11-17T16:39:16.697Z,104.63
2022-11-17T16:41:47.396Z,101.43
2022-11-17T16:44:17.802Z,101.53
2022-11-17T16:46:48.128Z,96.67
2022-11-17T16:49:18.643Z,95.37
2022-11-17T16:51:51.728Z,101.90
2022-11-17T16:54:21.000Z,103.07
2022-11-17T16:56:50.847Z,102.70
2022-11-17T16:59:19.691Z,108.53
2022-11-17T17:01:48.710Z,109.10
2022-11-17T17:04:17.202Z,99.67
2022-11-17T17:06:46.334Z,100.83
2022-11-17T17:09:16.339Z,94.47
2022-11-17T17:11:45.254Z,92.57
2022-11-17T17:14:16.783Z,94.43
2022-11-17T17:16:45.306Z,97.90
2022-11-17T17:19:15.990Z,100.07
2022-11-17T17:21:45.594Z,103.97
2022-11-17T17:24:14.501Z,103.70
2022-11-17T17:26:43.038Z,112.23
2022-11-17T17:29:12.647Z,111.05
2022-11-17T17:31:43.545Z,102.13
2022-11-17T17:34:13.862Z,120.53
2022-11-17T17:36:42.314Z,102.80
2022-11-17T17:39:15.720Z,104.73
2022-11-17T17:41:45.877Z,124.47
2022-11-17T17:44:16.550Z,215.60
2022-11-17T17:46:47.394Z,208.95
2022-11-17T17:49:16.429Z,154.80
2022-11-17T17:51:45.702Z,148.32
2022-11-17T17:54:19.002Z,230.60
2022-11-17T17:56:48.083Z,153.47
2022-11-17T17:59:16.999Z,133.53
2022-11-17T18:01:48.148Z,133.57
2022-11-17T18:04:17.340Z,130.30
2022-11-17T18:06:48.085Z,115.13
2022-11-17T18:09:19.740Z,128.73
2022-11-17T18:11:50.293Z,132.73
2022-11-17T18:14:22.520Z,138.47
2022-11-17T18:16:53.475Z,139.33
2022-11-17T18:19:21.971Z,135.40
2022-11-17T18:21:50.639Z,148.50
2022-11-17T18:24:19.097Z,163.23
2022-11-17T18:26:47.573Z,136.80
2022-11-17T18:29:18.482Z,126.60
2022-11-17T18:31:48.403Z,127.83
2022-11-17T18:34:21.105Z,125.00
2022-11-17T18:36:49.802Z,145.97
2022-11-17T18:39:18.822Z,144.43
2022-11-17T18:41:47.502Z,153.33
2022-11-17T18:44:18.509Z,139.33
2022-11-17T18:46:47.557Z,152.00
2022-11-17T18:49:17.901Z,146.97
2022-11-17T18:51:46.643Z,144.43
2022-11-17T18:54:15.191Z,142.20
2022-11-17T18:56:45.328Z,140.93
2022-11-17T18:59:15.496Z,138.23
2022-11-17T19:01:44.565Z,137.37
2022-11-17T19:04:14.851Z,126.83
2022-11-17T19:06:45.538Z,117.63
2022-11-17T19:09:14.844Z,115.97
2022-11-17T19:11:43.532Z,108.17
2022-11-17T19:14:12.231Z,109.80
2022-11-17T19:16:44.896Z,121.30
2022-11-17T19:19:15.149Z,109.63
2022-11-17T19:21:45.490Z,104.73
2022-11-17T19:24:15.435Z,105.57
2022-11-17T19:26:44.081Z,103.37
2022-11-17T19:29:17.276Z,123.00
2022-11-17T19:31:46.624Z,108.53
2022-11-17T19:34:15.497Z,122.73
2022-11-17T19:36:45.671Z,125.33
2022-11-17T19:39:15.271Z,112.13
2022-11-17T19:41:45.229Z,167.17
2022-11-17T19:44:14.217Z,125.20
2022-11-17T19:46:43.464Z,114.50
2022-11-17T19:49:13.350Z,120.23
2022-11-17T19:51:42.534Z,125.20
2022-11-17T19:54:14.927Z,114.87
2022-11-17T19:56:43.710Z,127.57
2022-11-17T19:59:15.974Z,132.27
2022-11-17T20:01:45.856Z,134.67
2022-11-17T20:04:14.716Z,122.90
2022-11-17T20:06:43.690Z,121.80
2022-11-17T20:09:15.544Z,126.17
2022-11-17T20:11:44.559Z,122.63
2022-11-17T20:14:14.534Z,129.30
2022-11-17T20:16:43.258Z,123.10
2022-11-17T20:19:13.853Z,126.70
2022-11-17T20:21:42.763Z,127.77
2022-11-17T20:24:13.388Z,120.30
2022-11-17T20:26:44.207Z,120.70
2022-11-17T20:29:12.687Z,112.53
2022-11-17T20:31:41.277Z,120.20
2022-11-17T20:34:13.661Z,124.00
2022-11-17T20:36:42.323Z,121.70
2022-11-17T20:39:11.254Z,121.33
2022-11-17T20:41:41.239Z,126.47
2022-11-17T20:44:24.067Z,136.10
2022-11-17T20:46:53.273Z,122.43
2022-11-17T20:49:21.762Z,142.37
2022-11-17T20:51:50.255Z,115.40
2022-11-17T20:54:20.491Z,125.90
2022-11-17T20:56:50.738Z,115.50
2022-11-17T20:59:20.380Z,136.33
2022-11-17T21:01:50.539Z,130.43
2022-11-17T21:04:19.237Z,135.80
2022-11-17T21:06:48.567Z,131.13
2022-11-17T21:09:18.021Z,128.67
2022-11-17T21:11:58.831Z,110.13
2022-11-17T21:14:30.643Z,95.87
2022-11-17T21:17:00.772Z,113.37
2022-11-17T21:19:32.372Z,109.87
2022-11-17T21:22:03.696Z,119.33
2022-11-17T21:24:32.158Z,108.77
2022-11-17T21:27:00.615Z,113.10
2022-11-17T21:29:30.934Z,113.90
2022-11-17T21:31:59.388Z,112.13
2022-11-17T21:34:27.911Z,108.03
2022-11-17T21:36:56.725Z,102.87
2022-11-17T21:39:25.436Z,114.93
2022-11-17T21:41:54.156Z,105.20
2022-11-17T21:44:22.948Z,105.77
2022-11-17T21:46:52.835Z,97.63
2022-11-17T21:49:21.400Z,99.10
2022-11-17T21:51:49.870Z,106.47
2022-11-17T21:54:18.487Z,100.77
2022-11-17T21:56:46.968Z,95.90
2022-11-17T21:59:17.548Z,101.23
2022-11-17T22:01:46.249Z,101.70
2022-11-17T22:04:16.497Z,109.27
2022-11-17T22:06:45.516Z,101.03
2022-11-17T22:09:14.419Z,114.80
2022-11-17T22:11:43.193Z,115.93
2022-11-17T22:14:13.444Z,107.07
2022-11-17T22:16:43.463Z,127.00
2022-11-17T22:19:14.470Z,114.30
2022-11-17T22:21:45.371Z,112.13
2022-11-17T22:24:14.164Z,110.27
2022-11-17T22:26:43.810Z,100.60
2022-11-17T22:29:14.385Z,93.47
2022-11-17T22:31:44.118Z,78.27
2022-11-17T22:34:13.330Z,86.33
2022-11-17T22:36:41.841Z,82.07
2022-11-17T22:39:11.951Z,81.70
2022-11-17T22:41:40.459Z,70.37
2022-11-17T22:44:08.974Z,73.27
2022-11-17T22:46:37.553Z,55.10
2022-11-17T22:49:05.948Z,40.83
2022-11-17T22:51:51.860Z,50.50
2022-11-17T22:54:21.654Z,38.33
2022-11-17T22:56:50.500Z,40.10
2022-11-17T22:59:19.786Z,38.03
2022-11-17T23:01:48.410Z,39.60
2022-11-17T23:04:17.157Z,38.67
2022-11-17T23:06:45.908Z,41.27
2022-11-17T23:09:14.646Z,43.30
2022-11-17T23:11:44.953Z,39.10
2022-11-17T23:14:14.489Z,49.10
2022-11-17T23:16:43.531Z,59.33
2022-11-17T23:19:14.010Z,60.33
2022-11-17T23:21:43.486Z,60.13
2022-11-17T23:24:13.101Z,60.60
2022-11-17T23:26:42.447Z,74.53
2022-11-17T23:29:12.335Z,74.23
2022-11-17T23:31:41.008Z,87.40
2022-11-17T23:34:10.061Z,96.80
2022-11-17T23:36:38.610Z,98.73
2022-11-17T23:39:07.176Z,109.17
2022-11-17T23:41:35.632Z,110.10
2022-11-17T23:44:04.239Z,115.40
2022-11-17T23:46:34.091Z,113.00
2022-11-17T23:49:02.802Z,119.30
2022-11-17T23:51:31.218Z,109.80
2022-11-17T23:54:00.683Z,113.70
2022-11-17T23:56:32.255Z,107.83
2022-11-17T23:59:00.895Z,107.77
